createdAt,value
2018-08-12T00:01:38.354Z,12.93
2018-08-12T00:04:08.250Z,12.90
2018-08-12T00:06:38.020Z,12.89
2018-08-12T00:09:10.641Z,12.87
2018-08-12T00:11:40.542Z,12.90
2018-08-12T00:14:10.280Z,12.88
2018-08-12T00:16:39.913Z,12.87
2018-08-12T00:19:09.670Z,12.88
2018-08-12T00:21:39.354Z,12.89
2018-08-12T00:24:09.154Z,12.91
2018-08-12T00:26:38.813Z,12.87
2018-08-12T00:29:08.510Z,12.92
2018-08-12T00:31:38.249Z,12.95
2018-08-12T00:34:08.242Z,12.96
2018-08-12T00:36:38.133Z,13.06
2018-08-12T00:39:11.869Z,13.03
2018-08-12T00:41:41.748Z,13.10
2018-08-12T00:44:11.548Z,13.14
2018-08-12T00:46:41.304Z,13.14
2018-08-12T00:49:11.028Z,13.20
2018-08-12T00:51:40.708Z,13.28
2018-08-12T00:54:10.428Z,13.30
2018-08-12T00:56:40.213Z,13.35
2018-08-12T00:59:09.933Z,13.45
2018-08-12T01:01:39.618Z,13.43
2018-08-12T01:04:09.349Z,13.46
2018-08-12T01:06:39.090Z,13.46
2018-08-12T01:09:12.445Z,13.46
2018-08-12T01:11:42.193Z,13.53
2018-08-12T01:14:11.991Z,13.51
2018-08-12T01:16:41.696Z,13.47
2018-08-12T01:19:11.428Z,13.48
2018-08-12T01:21:41.098Z,13.46
2018-08-12T01:24:10.826Z,13.46
2018-08-12T01:26:40.609Z,13.46
2018-08-12T01:29:10.341Z,13.37
2018-08-12T01:31:40.135Z,13.31
2018-08-12T01:34:09.936Z,13.30
2018-08-12T01:36:39.641Z,13.26
2018-08-12T01:39:10.604Z,13.21
2018-08-12T01:41:40.304Z,13.13
2018-08-12T01:44:10.098Z,13.03
2018-08-12T01:46:39.756Z,13.08
2018-08-12T01:49:09.385Z,13.14
2018-08-12T01:51:39.213Z,13.18
2018-08-12T01:54:08.937Z,13.15
2018-08-12T01:56:38.598Z,13.05
2018-08-12T01:59:08.325Z,12.93
2018-08-12T02:01:37.959Z,12.87
2018-08-12T02:04:07.665Z,12.81
2018-08-12T02:06:37.365Z,12.78
2018-08-12T02:09:10.073Z,12.73
2018-08-12T02:11:40.223Z,12.70
2018-08-12T02:14:10.156Z,12.68
2018-08-12T02:16:39.891Z,12.70
2018-08-12T02:19:09.665Z,12.71
2018-08-12T02:21:39.397Z,12.78
2018-08-12T02:24:09.420Z,12.77
2018-08-12T02:26:39.102Z,12.77
2018-08-12T02:29:08.768Z,12.84
2018-08-12T02:31:38.483Z,12.82
2018-08-12T02:34:08.239Z,12.93
2018-08-12T02:36:38.054Z,13.26
2018-08-12T02:39:11.093Z,13.37
2018-08-12T02:41:40.940Z,13.45
2018-08-12T02:44:10.680Z,13.61
2018-08-12T02:46:40.569Z,13.63
2018-08-12T02:49:10.226Z,13.65
2018-08-12T02:51:39.913Z,13.52
2018-08-12T02:54:09.726Z,13.42
2018-08-12T02:56:39.497Z,13.44
2018-08-12T02:59:09.133Z,13.49
2018-08-12T03:01:38.812Z,13.43
2018-08-12T03:04:08.519Z,13.48
2018-08-12T03:06:38.220Z,13.65
2018-08-12T03:09:11.826Z,13.58
2018-08-12T03:11:42.012Z,13.47
2018-08-12T03:14:11.788Z,13.36
2018-08-12T03:16:41.536Z,13.29
2018-08-12T03:19:11.409Z,13.31
2018-08-12T03:21:41.110Z,13.23
2018-08-12T03:24:10.951Z,13.12
2018-08-12T03:26:40.639Z,13.03
2018-08-12T03:29:10.377Z,12.98
2018-08-12T03:31:40.208Z,12.87
2018-08-12T03:34:09.964Z,12.89
2018-08-12T03:36:39.933Z,12.83
2018-08-12T03:39:11.671Z,13.09
2018-08-12T03:41:41.331Z,13.19
2018-08-12T03:44:10.981Z,13.27
2018-08-12T03:46:40.752Z,13.33
2018-08-12T03:49:10.509Z,13.28
2018-08-12T03:51:40.259Z,13.25
2018-08-12T03:54:10.104Z,13.16
2018-08-12T03:56:40.001Z,13.44
2018-08-12T03:59:09.740Z,13.33
2018-08-12T04:01:39.419Z,13.35
2018-08-12T04:04:09.249Z,13.31
2018-08-12T04:06:38.962Z,13.36
2018-08-12T04:09:10.436Z,13.31
2018-08-12T04:11:40.609Z,13.26
2018-08-12T04:14:10.369Z,13.23
2018-08-12T04:16:43.793Z,13.27
2018-08-12T04:19:13.533Z,13.27
2018-08-12T04:21:43.396Z,13.34
2018-08-12T04:24:13.106Z,13.21
2018-08-12T04:26:42.824Z,13.14
2018-08-12T04:29:12.537Z,13.19
2018-08-12T04:31:42.291Z,13.14
2018-08-12T04:34:12.060Z,13.05
2018-08-12T04:36:41.857Z,13.25
2018-08-12T04:39:13.217Z,13.51
2018-08-12T04:41:44.068Z,13.47
2018-08-12T04:44:14.203Z,13.41
2018-08-12T04:46:44.052Z,13.40
2018-08-12T04:49:13.717Z,13.41
2018-08-12T04:51:43.478Z,13.50
2018-08-12T04:54:13.193Z,13.49
2018-08-12T04:56:42.990Z,13.56
2018-08-12T04:59:12.679Z,13.88
2018-08-12T05:01:42.418Z,14.04
2018-08-12T05:04:12.208Z,14.43
2018-08-12T05:06:41.863Z,14.66
2018-08-12T05:09:12.503Z,14.76
2018-08-12T05:11:42.278Z,14.75
2018-08-12T05:14:12.181Z,14.96
2018-08-12T05:16:42.022Z,14.90
2018-08-12T05:19:11.789Z,14.94
2018-08-12T05:21:41.609Z,15.01
2018-08-12T05:24:11.366Z,14.84
2018-08-12T05:26:41.122Z,14.94
2018-08-12T05:29:11.032Z,15.00
2018-08-12T05:31:40.800Z,15.01
2018-08-12T05:34:10.632Z,15.00
2018-08-12T05:36:40.449Z,15.09
2018-08-12T05:39:12.801Z,15.06
2018-08-12T05:41:43.037Z,15.21
2018-08-12T05:44:12.779Z,15.29
2018-08-12T05:46:42.502Z,15.31
2018-08-12T05:49:12.276Z,15.34
2018-08-12T05:51:42.096Z,15.34
2018-08-12T05:54:12.027Z,15.59
2018-08-12T05:56:41.760Z,15.50
2018-08-12T05:59:11.455Z,15.62
2018-08-12T06:01:41.186Z,15.65
2018-08-12T06:04:11.006Z,15.63
2018-08-12T06:06:40.731Z,15.70
2018-08-12T06:09:11.208Z,15.80
2018-08-12T06:11:40.988Z,15.87
2018-08-12T06:14:10.909Z,16.08
2018-08-12T06:16:40.882Z,16.28
2018-08-12T06:19:10.737Z,16.51
2018-08-12T06:21:40.512Z,16.63
2018-08-12T06:24:10.298Z,16.83
2018-08-12T06:26:40.015Z,17.16
2018-08-12T06:29:09.849Z,17.35
2018-08-12T06:31:39.518Z,17.57
2018-08-12T06:34:09.321Z,17.72
2018-08-12T06:36:39.211Z,18.20
2018-08-12T06:39:11.504Z,18.45
2018-08-12T06:41:41.198Z,19.01
2018-08-12T06:44:10.926Z,19.25
2018-08-12T06:46:43.704Z,19.57
2018-08-12T06:49:13.456Z,20.49
2018-08-12T06:51:43.289Z,21.08
2018-08-12T06:54:12.973Z,21.27
2018-08-12T06:56:42.750Z,22.86
2018-08-12T06:59:12.447Z,23.68
2018-08-12T07:01:42.280Z,24.02
2018-08-12T07:04:12.036Z,24.35
2018-08-12T07:06:41.750Z,24.36
2018-08-12T07:09:12.044Z,24.83
2018-08-12T07:11:41.802Z,25.21
2018-08-12T07:14:11.541Z,25.09
2018-08-12T07:16:41.137Z,25.18
2018-08-12T07:19:10.876Z,24.87
2018-08-12T07:21:40.911Z,24.76
2018-08-12T07:24:10.584Z,25.42
2018-08-12T07:26:40.265Z,25.67
2018-08-12T07:29:10.406Z,25.93
2018-08-12T07:31:40.102Z,27.04
2018-08-12T07:34:09.837Z,27.90
2018-08-12T07:36:39.497Z,27.51
2018-08-12T07:39:10.298Z,27.51
2018-08-12T07:41:40.032Z,26.66
2018-08-12T07:44:09.845Z,27.57
2018-08-12T07:46:39.551Z,27.50
2018-08-12T07:49:09.232Z,27.33
2018-08-12T07:51:38.909Z,28.14
2018-08-12T07:54:08.672Z,28.06
2018-08-12T07:56:38.544Z,28.06
2018-08-12T07:59:08.306Z,28.80
2018-08-12T08:01:38.054Z,29.74
2018-08-12T08:04:07.886Z,29.19
2018-08-12T08:06:37.778Z,29.41
2018-08-12T08:09:11.073Z,30.03
2018-08-12T08:11:41.403Z,30.45
2018-08-12T08:14:11.172Z,30.08
2018-08-12T08:16:40.879Z,30.61
2018-08-12T08:19:10.761Z,30.67
2018-08-12T08:21:40.553Z,31.02
2018-08-12T08:24:10.312Z,31.08
2018-08-12T08:26:40.196Z,31.43
2018-08-12T08:29:09.872Z,30.09
2018-08-12T08:31:39.838Z,29.57
2018-08-12T08:34:09.405Z,29.67
2018-08-12T08:36:39.145Z,30.49
2018-08-12T08:39:13.170Z,30.17
2018-08-12T08:41:43.341Z,30.05
2018-08-12T08:44:13.112Z,30.89
2018-08-12T08:46:42.809Z,31.01
2018-08-12T08:49:12.675Z,31.34
2018-08-12T08:51:42.346Z,31.01
2018-08-12T08:54:12.063Z,32.00
2018-08-12T08:56:41.939Z,31.87
2018-08-12T08:59:11.865Z,32.10
2018-08-12T09:01:41.821Z,32.08
2018-08-12T09:04:11.453Z,32.81
2018-08-12T09:06:41.170Z,32.17
2018-08-12T09:09:14.509Z,33.06
2018-08-12T09:11:44.456Z,32.28
2018-08-12T09:14:14.212Z,30.92
2018-08-12T09:16:43.921Z,31.71
2018-08-12T09:19:13.612Z,32.16
2018-08-12T09:21:43.316Z,33.83
2018-08-12T09:24:12.978Z,33.02
2018-08-12T09:26:42.674Z,33.59
2018-08-12T09:29:12.336Z,33.05
2018-08-12T09:31:42.317Z,33.29
2018-08-12T09:34:12.083Z,32.93
2018-08-12T09:36:41.790Z,32.57
2018-08-12T09:39:12.721Z,32.88
2018-08-12T09:41:42.464Z,33.09
2018-08-12T09:44:12.262Z,32.47
2018-08-12T09:46:41.976Z,32.97
2018-08-12T09:49:11.914Z,32.76
2018-08-12T09:51:41.670Z,32.88
2018-08-12T09:54:11.430Z,33.89
2018-08-12T09:56:41.211Z,34.46
2018-08-12T09:59:10.981Z,35.07
2018-08-12T10:01:40.719Z,34.90
2018-08-12T10:04:10.476Z,34.87
2018-08-12T10:06:40.275Z,34.14
2018-08-12T10:09:11.449Z,34.44
2018-08-12T10:11:41.186Z,35.05
2018-08-12T10:14:10.901Z,34.90
2018-08-12T10:16:40.775Z,35.21
2018-08-12T10:19:10.533Z,34.33
2018-08-12T10:21:40.425Z,34.91
2018-08-12T10:24:10.224Z,34.65
2018-08-12T10:26:40.062Z,34.39
2018-08-12T10:29:09.757Z,34.66
2018-08-12T10:31:39.442Z,34.50
2018-08-12T10:34:09.084Z,34.53
2018-08-12T10:36:38.844Z,34.03
2018-08-12T10:39:09.665Z,35.44
2018-08-12T10:41:39.393Z,36.01
2018-08-12T10:44:09.177Z,34.58
2018-08-12T10:46:38.903Z,34.36
2018-08-12T10:49:08.669Z,34.28
2018-08-12T10:51:38.432Z,34.76
2018-08-12T10:54:08.495Z,33.66
2018-08-12T10:56:38.462Z,35.02
2018-08-12T10:59:08.305Z,35.27
2018-08-12T11:01:38.091Z,35.40
2018-08-12T11:04:08.096Z,35.36
2018-08-12T11:06:37.872Z,35.20
2018-08-12T11:09:09.211Z,34.34
2018-08-12T11:11:39.086Z,34.76
2018-08-12T11:14:08.816Z,34.63
2018-08-12T11:16:38.600Z,34.16
2018-08-12T11:19:08.302Z,34.03
2018-08-12T11:21:38.061Z,34.45
2018-08-12T11:24:07.886Z,33.76
2018-08-12T11:26:37.695Z,32.29
2018-08-12T11:29:08.166Z,33.80
2018-08-12T11:31:37.898Z,33.86
2018-08-12T11:34:08.383Z,34.54
2018-08-12T11:36:38.221Z,34.73
2018-08-12T11:39:11.263Z,34.83
2018-08-12T11:41:41.186Z,33.23
2018-08-12T11:44:10.946Z,33.66
2018-08-12T11:46:40.617Z,32.58
2018-08-12T11:49:10.480Z,32.97
2018-08-12T11:51:40.147Z,32.45
2018-08-12T11:54:10.162Z,32.71
2018-08-12T11:56:39.856Z,33.74
2018-08-12T11:59:09.553Z,33.86
2018-08-12T12:01:39.281Z,34.47
2018-08-12T12:04:09.047Z,34.20
2018-08-12T12:06:38.863Z,33.75
2018-08-12T12:09:10.478Z,33.61
2018-08-12T12:11:40.189Z,34.18
2018-08-12T12:14:09.914Z,34.32
2018-08-12T12:16:39.710Z,34.30
2018-08-12T12:19:09.549Z,34.09
2018-08-12T12:21:39.276Z,34.98
2018-08-12T12:24:09.029Z,34.66
2018-08-12T12:26:38.797Z,34.55
2018-08-12T12:29:08.535Z,32.88
2018-08-12T12:31:38.350Z,32.39
2018-08-12T12:34:08.373Z,32.26
2018-08-12T12:36:38.236Z,31.89
2018-08-12T12:39:10.985Z,31.93
2018-08-12T12:41:40.811Z,32.91
2018-08-12T12:44:10.585Z,32.47
2018-08-12T12:46:40.433Z,33.09
2018-08-12T12:49:10.193Z,33.71
2018-08-12T12:51:40.018Z,33.48
2018-08-12T12:54:09.986Z,33.41
2018-08-12T12:56:39.781Z,33.86
2018-08-12T12:59:09.594Z,33.97
2018-08-12T13:01:39.541Z,34.05
2018-08-12T13:04:09.530Z,33.61
2018-08-12T13:06:39.272Z,33.33
2018-08-12T13:09:12.519Z,33.48
2018-08-12T13:11:42.675Z,32.88
2018-08-12T13:14:12.529Z,33.65
2018-08-12T13:16:43.841Z,33.92
2018-08-12T13:19:13.572Z,33.93
2018-08-12T13:21:45.319Z,34.17
2018-08-12T13:24:15.135Z,34.07
2018-08-12T13:26:44.977Z,32.76
2018-08-12T13:29:14.637Z,32.28
2018-08-12T13:31:44.326Z,32.42
2018-08-12T13:34:14.074Z,33.18
2018-08-12T13:36:43.793Z,32.76
2018-08-12T13:39:14.393Z,32.98
2018-08-12T13:41:44.181Z,34.05
2018-08-12T13:44:14.002Z,33.48
2018-08-12T13:46:43.781Z,33.01
2018-08-12T13:49:13.621Z,33.66
2018-08-12T13:51:43.294Z,33.63
2018-08-12T13:54:12.969Z,33.98
2018-08-12T13:56:42.666Z,33.32
2018-08-12T13:59:12.421Z,33.74
2018-08-12T14:01:42.284Z,33.13
2018-08-12T14:04:11.947Z,33.59
2018-08-12T14:06:41.764Z,33.76
2018-08-12T14:09:11.942Z,34.86
2018-08-12T14:11:41.786Z,34.58
2018-08-12T14:14:11.578Z,33.16
2018-08-12T14:16:41.372Z,33.65
2018-08-12T14:19:11.154Z,33.62
2018-08-12T14:21:40.898Z,33.51
2018-08-12T14:24:10.697Z,34.48
2018-08-12T14:26:40.473Z,34.60
2018-08-12T14:29:10.241Z,34.88
2018-08-12T14:31:40.047Z,33.80
2018-08-12T14:34:10.091Z,34.20
2018-08-12T14:36:39.872Z,33.18
2018-08-12T14:39:10.833Z,33.56
2018-08-12T14:41:40.627Z,34.35
2018-08-12T14:44:10.436Z,34.00
2018-08-12T14:46:40.331Z,33.27
2018-08-12T14:49:10.099Z,33.27
2018-08-12T14:51:39.752Z,33.90
2018-08-12T14:54:09.518Z,34.14
2018-08-12T14:56:39.455Z,33.30
2018-08-12T14:59:09.691Z,33.32
2018-08-12T15:01:39.421Z,33.47
2018-08-12T15:04:09.141Z,34.03
2018-08-12T15:06:38.856Z,34.45
2018-08-12T15:09:11.827Z,33.93
2018-08-12T15:11:41.883Z,33.95
2018-08-12T15:14:11.644Z,33.69
2018-08-12T15:16:41.325Z,33.13
2018-08-12T15:19:11.100Z,32.32
2018-08-12T15:21:41.038Z,32.96
2018-08-12T15:24:10.698Z,32.96
2018-08-12T15:26:40.382Z,33.01
2018-08-12T15:29:10.171Z,32.82
2018-08-12T15:31:39.842Z,32.60
2018-08-12T15:34:10.123Z,31.64
2018-08-12T15:36:39.853Z,31.04
2018-08-12T15:39:12.211Z,30.72
2018-08-12T15:41:42.956Z,30.98
2018-08-12T15:44:12.734Z,31.04
2018-08-12T15:46:42.758Z,30.83
2018-08-12T15:49:12.614Z,30.30
2018-08-12T15:51:42.549Z,30.33
2018-08-12T15:54:12.458Z,30.19
2018-08-12T15:56:42.406Z,29.78
2018-08-12T15:59:12.179Z,29.90
2018-08-12T16:01:42.503Z,29.84
2018-08-12T16:04:12.310Z,29.75
2018-08-12T16:06:42.034Z,30.06
2018-08-12T16:09:12.749Z,29.69
2018-08-12T16:11:42.590Z,29.70
2018-08-12T16:14:12.789Z,29.62
2018-08-12T16:16:42.549Z,29.51
2018-08-12T16:19:12.469Z,29.91
2018-08-12T16:21:42.292Z,29.53
2018-08-12T16:24:12.093Z,30.09
2018-08-12T16:26:41.944Z,30.31
2018-08-12T16:29:11.930Z,30.39
2018-08-12T16:31:41.726Z,30.43
2018-08-12T16:34:11.473Z,30.08
2018-08-12T16:36:41.414Z,30.06
2018-08-12T16:39:12.681Z,29.41
2018-08-12T16:41:42.514Z,29.56
2018-08-12T16:44:13.088Z,30.07
2018-08-12T16:46:42.828Z,30.11
2018-08-12T16:49:12.601Z,29.59
2018-08-12T16:51:42.294Z,29.71
2018-08-12T16:54:11.996Z,29.65
2018-08-12T16:56:41.800Z,29.72
2018-08-12T16:59:11.722Z,29.63
2018-08-12T17:01:41.472Z,29.56
2018-08-12T17:04:11.384Z,29.89
2018-08-12T17:06:41.039Z,29.68
2018-08-12T17:09:12.292Z,29.33
2018-08-12T17:11:42.060Z,29.27
2018-08-12T17:14:12.073Z,29.12
2018-08-12T17:16:41.791Z,29.22
2018-08-12T17:19:11.607Z,29.09
2018-08-12T17:21:41.347Z,28.98
2018-08-12T17:24:11.061Z,28.81
2018-08-12T17:26:40.885Z,28.79
2018-08-12T17:29:10.633Z,28.80
2018-08-12T17:31:40.405Z,28.76
2018-08-12T17:34:10.211Z,28.83
2018-08-12T17:36:39.955Z,28.60
2018-08-12T17:39:11.090Z,28.53
2018-08-12T17:41:40.880Z,28.68
2018-08-12T17:44:10.703Z,28.55
2018-08-12T17:46:40.565Z,28.38
2018-08-12T17:49:10.487Z,28.39
2018-08-12T17:51:40.265Z,28.45
2018-08-12T17:54:10.216Z,28.43
2018-08-12T17:56:39.894Z,28.28
2018-08-12T17:59:09.881Z,28.36
2018-08-12T18:01:39.562Z,28.14
2018-08-12T18:04:09.378Z,28.13
2018-08-12T18:06:39.075Z,28.05
2018-08-12T18:09:09.682Z,27.83
2018-08-12T18:11:39.349Z,27.77
2018-08-12T18:14:09.496Z,27.75
2018-08-12T18:16:39.313Z,27.65
2018-08-12T18:19:09.081Z,27.37
2018-08-12T18:21:38.823Z,27.33
2018-08-12T18:24:08.810Z,27.25
2018-08-12T18:26:38.640Z,27.21
2018-08-12T18:29:08.357Z,27.13
2018-08-12T18:31:38.213Z,27.06
2018-08-12T18:34:08.123Z,26.97
2018-08-12T18:36:37.785Z,26.85
2018-08-12T18:39:11.131Z,26.75
2018-08-12T18:41:41.093Z,26.52
2018-08-12T18:44:11.256Z,26.35
2018-08-12T18:46:40.996Z,26.16
2018-08-12T18:49:10.792Z,25.98
2018-08-12T18:51:40.553Z,25.86
2018-08-12T18:54:10.357Z,25.74
2018-08-12T18:56:40.299Z,25.55
2018-08-12T18:59:09.969Z,25.40
2018-08-12T19:01:39.637Z,25.42
2018-08-12T19:04:09.447Z,25.38
2018-08-12T19:06:39.166Z,25.21
2018-08-12T19:09:11.018Z,25.08
2018-08-12T19:11:40.786Z,24.73
2018-08-12T19:14:10.566Z,24.34
2018-08-12T19:16:40.239Z,24.02
2018-08-12T19:19:10.117Z,23.80
2018-08-12T19:21:39.837Z,23.47
2018-08-12T19:24:09.611Z,23.16
2018-08-12T19:26:39.358Z,22.85
2018-08-12T19:29:09.561Z,22.60
2018-08-12T19:31:39.270Z,22.34
2018-08-12T19:34:08.977Z,22.08
2018-08-12T19:36:38.766Z,21.88
2018-08-12T19:39:11.194Z,21.69
2018-08-12T19:41:40.965Z,21.51
2018-08-12T19:44:10.732Z,21.34
2018-08-12T19:46:40.583Z,21.22
2018-08-12T19:49:10.341Z,21.07
2018-08-12T19:51:40.019Z,20.99
2018-08-12T19:54:09.768Z,20.88
2018-08-12T19:56:39.649Z,20.71
2018-08-12T19:59:09.393Z,20.62
2018-08-12T20:01:39.220Z,20.50
2018-08-12T20:04:08.957Z,20.39
2018-08-12T20:06:38.673Z,20.24
2018-08-12T20:09:11.344Z,20.15
2018-08-12T20:11:41.161Z,20.04
2018-08-12T20:14:10.917Z,19.96
2018-08-12T20:16:40.716Z,19.90
2018-08-12T20:19:10.533Z,19.85
2018-08-12T20:21:40.356Z,19.77
2018-08-12T20:24:10.237Z,19.69
2018-08-12T20:26:39.915Z,19.66
2018-08-12T20:29:09.734Z,19.58
2018-08-12T20:31:39.502Z,19.55
2018-08-12T20:34:09.258Z,19.57
2018-08-12T20:36:39.818Z,19.63
2018-08-12T20:39:12.460Z,19.50
2018-08-12T20:41:43.125Z,19.35
2018-08-12T20:44:13.057Z,19.27
2018-08-12T20:46:42.846Z,19.18
2018-08-12T20:49:12.619Z,19.08
2018-08-12T20:51:42.571Z,18.97
2018-08-12T20:54:14.310Z,18.90
2018-08-12T20:56:44.107Z,18.97
2018-08-12T20:59:13.854Z,19.03
2018-08-12T21:01:43.711Z,18.93
2018-08-12T21:04:13.561Z,18.80
2018-08-12T21:06:43.286Z,18.72
2018-08-12T21:09:13.050Z,18.75
2018-08-12T21:11:42.898Z,18.66
2018-08-12T21:14:12.589Z,18.58
2018-08-12T21:16:42.253Z,18.50
2018-08-12T21:19:11.933Z,18.42
2018-08-12T21:21:41.670Z,18.37
2018-08-12T21:24:11.461Z,18.30
2018-08-12T21:26:41.415Z,18.24
2018-08-12T21:29:11.198Z,18.19
2018-08-12T21:31:41.837Z,18.13
2018-08-12T21:34:11.632Z,18.13
2018-08-12T21:36:41.338Z,18.13
2018-08-12T21:39:13.249Z,18.08
2018-08-12T21:41:43.108Z,18.08
2018-08-12T21:44:12.768Z,18.00
2018-08-12T21:46:43.038Z,17.99
2018-08-12T21:49:12.850Z,17.93
2018-08-12T21:51:42.561Z,17.89
2018-08-12T21:54:12.467Z,17.88
2018-08-12T21:56:42.417Z,17.90
2018-08-12T21:59:12.224Z,17.91
2018-08-12T22:01:41.954Z,17.92
2018-08-12T22:04:11.677Z,17.85
2018-08-12T22:06:41.443Z,17.88
2018-08-12T22:09:11.917Z,17.90
2018-08-12T22:11:41.961Z,17.91
2018-08-12T22:14:11.817Z,17.95
2018-08-12T22:16:41.549Z,18.03
2018-08-12T22:19:11.238Z,18.13
2018-08-12T22:21:40.948Z,18.20
2018-08-12T22:24:10.704Z,18.25
2018-08-12T22:26:40.372Z,18.32
2018-08-12T22:29:10.278Z,18.55
2018-08-12T22:31:40.019Z,18.78
2018-08-12T22:34:09.815Z,19.03
2018-08-12T22:36:39.530Z,19.10
2018-08-12T22:39:10.227Z,19.19
2018-08-12T22:41:39.908Z,19.35
2018-08-12T22:44:09.626Z,19.80
2018-08-12T22:46:39.360Z,19.87
2018-08-12T22:49:09.201Z,19.97
2018-08-12T22:51:38.959Z,19.92
2018-08-12T23:09:01.891Z,19.74
2018-08-12T23:11:33.123Z,19.61
2018-08-12T23:14:02.828Z,19.82
2018-08-12T23:16:49.129Z,19.61
2018-08-12T23:19:18.838Z,19.47
2018-08-12T23:21:48.574Z,19.29
2018-08-12T23:24:18.427Z,19.15
2018-08-12T23:26:48.090Z,18.96
2018-08-12T23:29:17.876Z,18.74
2018-08-12T23:31:47.677Z,18.64
2018-08-12T23:34:17.381Z,18.51
2018-08-12T23:36:47.053Z,18.49
2018-08-12T23:39:16.769Z,18.45
2018-08-12T23:41:46.521Z,18.55
2018-08-12T23:44:16.189Z,18.63
2018-08-12T23:46:45.928Z,18.66
2018-08-12T23:49:15.599Z,18.65
2018-08-12T23:51:45.285Z,18.69
2018-08-12T23:54:15.180Z,18.71
2018-08-12T23:56:44.916Z,18.63
2018-08-12T23:59:14.619Z,18.73
